createdAt,value
2023-04-10T00:01:27.508Z,83.50
2023-04-10T00:04:35.747Z,82.70
2023-04-10T00:07:43.995Z,85.64
2023-04-10T00:10:53.288Z,85.88
2023-04-10T00:14:02.832Z,84.90
2023-04-10T00:17:11.390Z,85.85
2023-04-10T00:20:19.756Z,85.96
2023-04-10T00:23:28.102Z,86.00
2023-04-10T00:26:37.514Z,85.24
2023-04-10T00:29:47.283Z,85.32
2023-04-10T00:32:55.745Z,84.82
2023-04-10T00:36:04.240Z,84.30
2023-04-10T00:39:12.845Z,84.80
2023-04-10T00:42:22.235Z,84.55
2023-04-10T00:45:32.269Z,84.63
2023-04-10T00:48:40.886Z,83.68
2023-04-10T00:51:49.698Z,84.24
2023-04-10T00:54:58.604Z,84.80
2023-04-10T00:58:07.975Z,83.92
2023-04-10T01:01:17.892Z,83.84
2023-04-10T01:04:28.757Z,84.50
2023-04-10T01:07:55.114Z,84.45
2023-04-10T01:11:11.384Z,83.64
2023-04-10T01:14:31.867Z,84.62
2023-04-10T01:17:51.831Z,84.96
2023-04-10T01:21:03.998Z,84.92
2023-04-10T01:24:33.993Z,84.33
2023-04-10T01:28:01.337Z,83.29
2023-04-10T01:31:22.240Z,84.13
2023-04-10T01:34:39.997Z,84.71
2023-04-10T01:37:54.462Z,85.13
2023-04-10T01:41:04.204Z,85.66
2023-04-10T01:44:16.854Z,85.01
2023-04-10T01:47:29.080Z,84.96
2023-04-10T01:50:39.341Z,85.24
2023-04-10T01:53:49.090Z,84.18
2023-04-10T01:57:06.430Z,84.76
2023-04-10T02:00:22.853Z,84.91
2023-04-10T02:03:32.923Z,84.13
2023-04-10T02:06:52.718Z,83.66
2023-04-10T02:10:12.237Z,84.07
2023-04-10T02:13:23.594Z,83.92
2023-04-10T02:16:34.916Z,83.86
2023-04-10T02:19:48.269Z,83.70
2023-04-10T02:22:59.570Z,83.36
2023-04-10T02:26:09.012Z,83.11
2023-04-10T02:29:17.639Z,83.77
2023-04-10T02:32:26.421Z,84.57
2023-04-10T02:35:36.319Z,83.98
2023-04-10T02:38:44.969Z,84.74
2023-04-10T02:41:54.616Z,83.99
2023-04-10T02:45:03.249Z,84.64
2023-04-10T02:48:17.691Z,84.01
2023-04-10T02:51:31.100Z,84.70
2023-04-10T02:54:39.493Z,84.23
2023-04-10T02:57:48.529Z,84.31
2023-04-10T03:00:57.877Z,85.32
2023-04-10T03:04:26.409Z,84.55
2023-04-10T03:07:36.084Z,85.84
2023-04-10T03:10:48.485Z,84.76
2023-04-10T03:13:58.285Z,84.99
2023-04-10T03:17:07.436Z,85.44
2023-04-10T03:20:17.314Z,85.21
2023-04-10T03:23:26.927Z,84.92
2023-04-10T03:26:35.060Z,85.45
2023-04-10T03:29:43.980Z,86.44
2023-04-10T03:32:53.152Z,86.12
2023-04-10T03:36:01.607Z,86.02
2023-04-10T03:39:11.270Z,85.31
2023-04-10T03:42:19.413Z,85.92
2023-04-10T03:45:28.038Z,86.08
2023-04-10T03:48:36.429Z,86.70
2023-04-10T03:51:44.659Z,86.62
2023-04-10T03:54:54.119Z,86.69
2023-04-10T03:58:08.379Z,86.40
2023-04-10T04:01:18.118Z,86.74
2023-04-10T04:04:39.412Z,87.23
2023-04-10T04:08:07.146Z,87.22
2023-04-10T04:11:38.536Z,85.90
2023-04-10T04:15:04.227Z,86.60
2023-04-10T04:18:38.385Z,86.32
2023-04-10T04:22:16.957Z,86.38
2023-04-10T04:25:52.822Z,86.30
2023-04-10T04:29:31.098Z,86.26
2023-04-10T04:33:05.785Z,86.50
2023-04-10T04:36:24.129Z,86.31
2023-04-10T04:39:54.941Z,86.64
2023-04-10T04:43:06.014Z,86.97
2023-04-10T04:46:34.581Z,87.21
2023-04-10T04:50:01.207Z,87.08
2023-04-10T04:53:44.670Z,87.29
2023-04-10T04:57:11.426Z,86.52
2023-04-10T05:00:37.189Z,86.42
2023-04-10T05:03:55.296Z,85.74
2023-04-10T05:07:16.634Z,85.94
2023-04-10T05:10:46.946Z,85.28
2023-04-10T05:14:13.959Z,86.32
2023-04-10T05:17:33.787Z,86.35
2023-04-10T05:20:55.986Z,86.18
2023-04-10T05:24:19.014Z,86.29
2023-04-10T05:27:46.329Z,85.72
2023-04-10T05:31:17.689Z,86.42
2023-04-10T05:34:37.363Z,85.56
2023-04-10T05:38:05.825Z,84.83
2023-04-10T05:41:24.933Z,82.49
2023-04-10T05:44:46.437Z,79.91
2023-04-10T05:48:17.315Z,80.55
2023-04-10T05:51:43.471Z,79.06
2023-04-10T05:55:15.088Z,80.57
2023-04-10T05:58:37.057Z,79.57
2023-04-10T06:02:04.214Z,79.84
2023-04-10T06:05:12.487Z,78.82
2023-04-10T06:08:22.888Z,77.34
2023-04-10T06:11:32.674Z,74.67
2023-04-10T06:14:41.269Z,73.38
2023-04-10T06:17:51.152Z,71.16
2023-04-10T06:21:01.856Z,68.77
2023-04-10T06:24:11.671Z,62.56
2023-04-10T06:27:22.770Z,56.81
2023-04-10T06:30:34.143Z,51.24
2023-04-10T06:33:43.167Z,48.25
2023-04-10T06:36:52.303Z,45.67
2023-04-10T06:40:06.944Z,46.66
2023-04-10T06:43:16.781Z,46.05
2023-04-10T06:46:25.253Z,44.06
2023-04-10T06:49:33.423Z,42.43
2023-04-10T06:52:42.696Z,41.30
2023-04-10T06:55:51.071Z,41.17
2023-04-10T06:59:00.627Z,44.12
2023-04-10T07:02:09.790Z,42.67
2023-04-10T07:05:19.060Z,41.47
2023-04-10T07:08:27.205Z,41.23
2023-04-10T07:11:35.570Z,41.71
2023-04-10T07:14:46.063Z,41.12
2023-04-10T07:17:54.202Z,41.97
2023-04-10T07:21:02.941Z,42.73
2023-04-10T07:24:11.567Z,45.21
2023-04-10T07:27:20.828Z,45.45
2023-04-10T07:30:31.065Z,47.50
2023-04-10T07:33:39.490Z,46.00
2023-04-10T07:36:48.331Z,42.56
2023-04-10T07:39:56.632Z,43.47
2023-04-10T07:43:04.870Z,41.13
2023-04-10T07:46:14.434Z,41.33
2023-04-10T07:49:22.880Z,41.78
2023-04-10T07:52:31.068Z,42.59
2023-04-10T07:55:40.314Z,42.46
2023-04-10T07:58:49.526Z,45.23
2023-04-10T08:01:59.401Z,45.39
2023-04-10T08:05:08.841Z,43.97
2023-04-10T08:08:17.611Z,43.86
2023-04-10T08:11:28.638Z,44.59
2023-04-10T08:14:36.805Z,46.08
2023-04-10T08:17:47.719Z,48.40
2023-04-10T08:20:57.160Z,46.34
2023-04-10T08:24:06.216Z,45.39
2023-04-10T08:27:16.321Z,45.53
2023-04-10T08:30:24.922Z,44.76
2023-04-10T08:33:34.764Z,44.77
2023-04-10T08:36:43.024Z,44.70
2023-04-10T08:39:51.819Z,44.05
2023-04-10T08:43:03.101Z,44.18
2023-04-10T08:46:12.504Z,44.27
2023-04-10T08:49:32.357Z,44.23
2023-04-10T08:52:47.016Z,45.61
2023-04-10T08:55:55.505Z,45.16
2023-04-10T08:59:04.436Z,47.60
2023-04-10T09:02:12.980Z,45.30
2023-04-10T09:05:23.487Z,46.04
2023-04-10T09:08:32.087Z,45.39
2023-04-10T09:12:04.373Z,44.54
2023-04-10T09:15:13.924Z,45.07
2023-04-10T09:18:22.393Z,44.27
2023-04-10T09:21:31.820Z,44.67
2023-04-10T09:24:42.550Z,44.89
2023-04-10T09:28:02.702Z,44.46
2023-04-10T09:31:30.932Z,46.77
2023-04-10T09:34:56.566Z,46.09
2023-04-10T09:38:17.125Z,45.22
2023-04-10T09:41:25.483Z,43.31
2023-04-10T09:44:37.398Z,44.81
2023-04-10T09:48:01.867Z,43.84
2023-04-10T09:51:29.891Z,45.94
2023-04-10T09:54:39.697Z,43.53
2023-04-10T09:57:48.078Z,45.53
2023-04-10T10:00:56.566Z,44.53
2023-04-10T10:04:07.350Z,43.39
2023-04-10T10:07:17.985Z,41.88
2023-04-10T10:10:27.687Z,40.94
2023-04-10T10:13:42.828Z,43.10
2023-04-10T10:16:56.689Z,41.38
2023-04-10T10:20:11.046Z,40.81
2023-04-10T10:23:20.919Z,41.79
2023-04-10T10:26:34.935Z,40.20
2023-04-10T10:29:48.042Z,40.64
2023-04-10T10:32:57.297Z,41.54
2023-04-10T10:36:06.683Z,39.83
2023-04-10T10:39:30.336Z,41.75
2023-04-10T10:42:51.719Z,40.26
2023-04-10T10:46:05.123Z,41.66
2023-04-10T10:49:13.569Z,38.04
2023-04-10T10:52:47.702Z,39.37
2023-04-10T10:55:55.797Z,41.85
2023-04-10T10:59:05.602Z,41.21
2023-04-10T11:02:19.030Z,39.08
2023-04-10T11:05:52.429Z,39.57
2023-04-10T11:09:00.589Z,41.40
2023-04-10T11:12:08.884Z,39.51
2023-04-10T11:15:25.118Z,38.72
2023-04-10T11:19:14.836Z,39.21
2023-04-10T11:22:23.862Z,40.22
2023-04-10T11:25:49.543Z,36.99
2023-04-10T11:28:58.168Z,34.63
2023-04-10T11:32:07.767Z,35.50
2023-04-10T11:35:20.568Z,37.41
2023-04-10T11:38:28.740Z,37.86
2023-04-10T11:41:39.289Z,37.00
2023-04-10T11:44:48.840Z,38.26
2023-04-10T11:47:58.400Z,37.58
2023-04-10T11:51:14.553Z,37.75
2023-04-10T11:54:25.153Z,39.41
2023-04-10T11:57:36.514Z,38.43
2023-04-10T12:00:44.851Z,38.03
2023-04-10T12:03:54.693Z,36.52
2023-04-10T12:07:03.680Z,38.35
2023-04-10T12:10:11.894Z,37.20
2023-04-10T12:13:26.773Z,38.01
2023-04-10T12:16:35.226Z,36.38
2023-04-10T12:19:45.408Z,35.91
2023-04-10T12:22:56.634Z,36.58
2023-04-10T12:26:12.599Z,35.70
2023-04-10T12:29:20.835Z,35.72
2023-04-10T12:32:29.286Z,36.96
2023-04-10T12:35:42.966Z,37.40
2023-04-10T12:38:51.661Z,36.15
2023-04-10T12:42:22.950Z,38.38
2023-04-10T12:45:46.708Z,35.26
2023-04-10T12:48:58.258Z,36.40
2023-04-10T12:52:07.750Z,36.67
2023-04-10T12:55:18.258Z,37.55
2023-04-10T12:58:28.128Z,36.01
2023-04-10T13:01:38.529Z,36.05
2023-04-10T13:04:46.933Z,36.89
2023-04-10T13:07:56.859Z,36.43
2023-04-10T13:11:05.642Z,36.48
2023-04-10T13:14:17.854Z,37.14
2023-04-10T13:17:26.535Z,36.60
2023-04-10T13:20:36.740Z,35.09
2023-04-10T13:23:47.101Z,35.65
2023-04-10T13:26:57.206Z,35.43
2023-04-10T13:30:06.592Z,34.70
2023-04-10T13:33:15.183Z,35.06
2023-04-10T13:36:23.508Z,36.09
2023-04-10T13:39:33.603Z,35.86
2023-04-10T13:42:42.624Z,35.43
2023-04-10T13:45:51.284Z,36.02
2023-04-10T13:48:59.809Z,36.62
2023-04-10T13:52:08.285Z,35.39
2023-04-10T13:55:18.158Z,36.06
2023-04-10T13:58:30.802Z,35.92
2023-04-10T14:01:39.326Z,34.63
2023-04-10T14:04:47.645Z,36.38
2023-04-10T14:07:57.002Z,35.58
2023-04-10T14:11:07.306Z,34.40
2023-04-10T14:14:15.433Z,35.32
2023-04-10T14:17:24.413Z,34.81
2023-04-10T14:20:32.829Z,35.50
2023-04-10T14:23:42.672Z,35.01
2023-04-10T14:26:54.758Z,34.17
2023-04-10T14:30:03.241Z,35.35
2023-04-10T14:33:11.450Z,35.19
2023-04-10T14:36:20.711Z,35.25
2023-04-10T14:39:28.913Z,35.76
2023-04-10T14:42:38.529Z,34.83
2023-04-10T14:45:46.660Z,35.62
2023-04-10T14:48:55.466Z,36.14
2023-04-10T14:52:04.146Z,35.60
2023-04-10T14:55:12.861Z,36.22
2023-04-10T14:58:22.516Z,36.33
2023-04-10T15:01:32.067Z,36.32
2023-04-10T15:04:40.654Z,37.01
2023-04-10T15:07:49.232Z,36.54
2023-04-10T15:10:57.381Z,37.02
2023-04-10T15:14:07.444Z,35.79
2023-04-10T15:17:15.825Z,36.68
2023-04-10T15:20:23.966Z,37.24
2023-04-10T15:23:32.480Z,37.25
2023-04-10T15:26:46.350Z,37.93
2023-04-10T15:29:56.316Z,38.50
2023-04-10T15:33:04.873Z,37.84
2023-04-10T15:36:13.180Z,38.14
2023-04-10T15:39:21.668Z,38.13
2023-04-10T15:42:30.114Z,38.96
2023-04-10T15:45:39.777Z,39.13
2023-04-10T15:48:48.195Z,39.35
2023-04-10T15:51:56.300Z,39.23
2023-04-10T15:55:04.800Z,38.77
2023-04-10T15:58:13.276Z,38.11
2023-04-10T16:01:23.038Z,39.54
2023-04-10T16:04:31.991Z,38.87
2023-04-10T16:07:42.165Z,40.19
2023-04-10T16:10:50.326Z,40.26
2023-04-10T16:13:58.435Z,40.83
2023-04-10T16:17:08.107Z,39.41
2023-04-10T16:20:16.501Z,39.88
2023-04-10T16:23:24.688Z,40.97
2023-04-10T16:26:33.240Z,41.81
2023-04-10T16:29:41.681Z,41.95
2023-04-10T16:32:53.605Z,42.31
2023-04-10T16:36:04.570Z,42.43
2023-04-10T16:39:12.796Z,42.69
2023-04-10T16:42:20.922Z,42.37
2023-04-10T16:45:29.818Z,43.08
2023-04-10T16:48:39.413Z,43.35
2023-04-10T16:51:47.483Z,43.40
2023-04-10T16:54:55.643Z,43.48
2023-04-10T16:58:04.022Z,44.01
2023-04-10T17:01:16.993Z,44.20
2023-04-10T17:04:26.974Z,44.95
2023-04-10T17:07:35.605Z,44.74
2023-04-10T17:10:43.931Z,44.36
2023-04-10T17:13:52.081Z,45.20
2023-04-10T17:17:00.293Z,45.44
2023-04-10T17:20:11.276Z,46.43
2023-04-10T17:23:19.865Z,47.62
2023-04-10T17:26:28.109Z,47.89
2023-04-10T17:29:38.498Z,48.21
2023-04-10T17:32:48.671Z,48.55
2023-04-10T17:35:58.692Z,49.89
2023-04-10T17:39:07.226Z,50.35
2023-04-10T17:42:15.641Z,51.09
2023-04-10T17:45:23.861Z,51.32
2023-04-10T17:48:32.398Z,51.89
2023-04-10T17:51:42.431Z,52.96
2023-04-10T17:54:50.737Z,52.89
2023-04-10T17:57:59.726Z,53.37
2023-04-10T18:01:08.295Z,54.17
2023-04-10T18:04:16.741Z,54.57
2023-04-10T18:07:26.634Z,55.33
2023-04-10T18:10:35.451Z,55.20
2023-04-10T18:13:43.875Z,55.24
2023-04-10T18:16:52.367Z,54.36
2023-04-10T18:20:00.620Z,55.07
2023-04-10T18:23:10.712Z,55.28
2023-04-10T18:26:20.863Z,55.23
2023-04-10T18:29:30.383Z,55.42
2023-04-10T18:32:39.554Z,55.47
2023-04-10T18:35:47.923Z,56.18
2023-04-10T18:38:58.071Z,55.72
2023-04-10T18:42:10.549Z,56.31
2023-04-10T18:45:19.766Z,56.43
2023-04-10T18:48:27.875Z,57.07
2023-04-10T18:51:36.666Z,57.30
2023-04-10T18:54:47.590Z,57.22
2023-04-10T18:57:56.229Z,57.30
2023-04-10T19:01:04.799Z,57.50
2023-04-10T19:04:13.256Z,58.51
2023-04-10T19:07:21.571Z,58.03
2023-04-10T19:10:31.313Z,59.00
2023-04-10T19:13:39.954Z,58.75
2023-04-10T19:16:48.152Z,59.46
2023-04-10T19:19:58.002Z,59.54
2023-04-10T19:23:07.190Z,58.82
2023-04-10T19:26:19.625Z,59.60
2023-04-10T19:29:28.001Z,59.87
2023-04-10T19:32:36.591Z,60.59
2023-04-10T19:35:45.188Z,60.79
2023-04-10T19:38:53.497Z,61.31
2023-04-10T19:42:03.314Z,60.79
2023-04-10T19:45:13.377Z,61.31
2023-04-10T19:48:21.880Z,60.85
2023-04-10T19:51:30.254Z,61.05
2023-04-10T19:54:38.508Z,61.78
2023-04-10T19:57:49.237Z,61.28
2023-04-10T20:01:03.031Z,61.94
2023-04-10T20:04:11.820Z,62.65
2023-04-10T20:07:20.681Z,62.35
2023-04-10T20:10:28.993Z,62.66
2023-04-10T20:13:39.249Z,63.07
2023-04-10T20:16:48.205Z,63.44
2023-04-10T20:19:56.970Z,63.90
2023-04-10T20:23:05.690Z,64.67
2023-04-10T20:26:15.937Z,64.43
2023-04-10T20:29:25.805Z,63.83
2023-04-10T20:32:34.447Z,64.26
2023-04-10T20:35:44.303Z,64.12
2023-04-10T20:38:53.302Z,64.70
2023-04-10T20:42:02.129Z,64.32
2023-04-10T20:45:13.664Z,64.48
2023-04-10T20:48:22.576Z,64.22
2023-04-10T20:51:31.512Z,64.75
2023-04-10T20:54:39.971Z,64.55
2023-04-10T20:57:48.421Z,65.61
2023-04-10T21:00:58.553Z,65.54
2023-04-10T21:04:07.742Z,66.24
2023-04-10T21:07:16.546Z,66.65
2023-04-10T21:10:25.134Z,66.29
2023-04-10T21:13:33.432Z,66.50
2023-04-10T21:16:44.818Z,66.12
2023-04-10T21:19:53.304Z,65.87
2023-04-10T21:23:02.486Z,66.06
2023-04-10T21:26:11.429Z,66.53
2023-04-10T21:29:19.995Z,66.14
2023-04-10T21:32:30.053Z,66.07
2023-04-10T21:35:38.523Z,65.81
2023-04-10T21:38:46.762Z,65.94
2023-04-10T21:41:55.856Z,66.45
2023-04-10T21:45:04.783Z,66.30
2023-04-10T21:48:14.595Z,66.03
2023-04-10T21:51:25.096Z,66.42
2023-04-10T21:54:34.564Z,66.32
2023-04-10T21:57:42.762Z,65.96
2023-04-10T22:00:51.794Z,66.29
2023-04-10T22:04:01.846Z,67.03
2023-04-10T22:07:10.368Z,66.97
2023-04-10T22:10:18.811Z,66.51
2023-04-10T22:13:30.716Z,66.43
2023-04-10T22:16:39.714Z,66.41
2023-04-10T22:19:49.376Z,66.73
2023-04-10T22:22:58.930Z,67.09
2023-04-10T22:26:07.939Z,67.37
2023-04-10T22:29:19.372Z,66.89
2023-04-10T22:32:27.873Z,67.13
2023-04-10T22:35:37.628Z,67.57
2023-04-10T22:38:45.939Z,67.31
2023-04-10T22:41:54.326Z,66.81
2023-04-10T22:45:03.232Z,66.59
2023-04-10T22:48:11.883Z,66.63
2023-04-10T22:51:22.644Z,66.83
2023-04-10T22:54:31.679Z,66.18
2023-04-10T22:57:40.046Z,65.66
2023-04-10T23:00:48.474Z,64.56
2023-04-10T23:03:56.646Z,64.24
2023-04-10T23:07:06.595Z,64.54
2023-04-10T23:10:14.721Z,63.32
2023-04-10T23:13:23.457Z,63.39
2023-04-10T23:16:31.902Z,63.26
2023-04-10T23:19:40.438Z,62.88
2023-04-10T23:22:50.499Z,63.00
2023-04-10T23:25:59.189Z,62.14
2023-04-10T23:29:07.304Z,61.96
2023-04-10T23:32:15.962Z,62.67
2023-04-10T23:35:24.674Z,62.36
2023-04-10T23:38:34.178Z,62.44
2023-04-10T23:41:42.345Z,62.22
2023-04-10T23:44:50.634Z,61.91
2023-04-10T23:47:58.972Z,61.72
2023-04-10T23:51:09.160Z,62.09
2023-04-10T23:54:19.198Z,61.78
2023-04-10T23:57:27.493Z,61.40
